createdAt,value
2018-07-16T00:00:32.974Z,6.37
2018-07-16T00:03:01.518Z,6.67
2018-07-16T00:05:30.082Z,6.07
2018-07-16T00:07:58.704Z,6.20
2018-07-16T00:10:27.244Z,6.17
2018-07-16T00:12:55.848Z,6.90
2018-07-16T00:15:24.502Z,6.10
2018-07-16T00:17:53.148Z,6.37
2018-07-16T00:20:21.722Z,6.40
2018-07-16T00:22:50.330Z,6.40
2018-07-16T00:25:18.888Z,6.00
2018-07-16T00:27:47.488Z,6.77
2018-07-16T00:30:16.818Z,6.57
2018-07-16T00:32:45.412Z,6.60
2018-07-16T00:35:14.030Z,6.93
2018-07-16T00:37:42.654Z,6.60
2018-07-16T00:40:11.296Z,6.57
2018-07-16T00:42:39.915Z,6.23
2018-07-16T00:45:08.599Z,6.87
2018-07-16T00:47:37.258Z,6.53
2018-07-16T00:50:05.881Z,7.47
2018-07-16T00:52:34.473Z,7.00
2018-07-16T00:55:03.045Z,7.90
2018-07-16T00:57:31.676Z,6.93
2018-07-16T01:00:00.330Z,6.57
2018-07-16T01:02:28.888Z,6.70
2018-07-16T01:04:57.516Z,7.17
2018-07-16T01:07:26.224Z,7.97
2018-07-16T01:09:54.853Z,6.90
2018-07-16T01:12:23.504Z,6.80
2018-07-16T01:14:52.127Z,7.37
2018-07-16T01:17:20.655Z,6.80
2018-07-16T01:19:49.243Z,6.67
2018-07-16T01:22:17.936Z,6.63
2018-07-16T01:24:46.693Z,7.27
2018-07-16T01:27:15.395Z,7.60
2018-07-16T01:29:44.057Z,7.07
2018-07-16T01:32:13.147Z,7.13
2018-07-16T01:34:41.755Z,7.27
2018-07-16T01:37:10.353Z,7.80
2018-07-16T01:39:39.003Z,7.33
2018-07-16T01:42:08.371Z,8.30
2018-07-16T01:44:37.107Z,7.87
2018-07-16T01:47:05.639Z,7.43
2018-07-16T01:49:34.209Z,7.27
2018-07-16T01:52:02.871Z,7.50
2018-07-16T01:54:31.575Z,7.47
2018-07-16T01:57:00.199Z,7.67
2018-07-16T01:59:28.779Z,7.40
2018-07-16T02:01:57.533Z,7.50
2018-07-16T02:04:26.107Z,7.73
2018-07-16T02:06:54.803Z,7.63
2018-07-16T02:09:25.491Z,7.43
2018-07-16T02:11:54.257Z,6.97
2018-07-16T02:14:22.833Z,6.87
2018-07-16T02:16:51.452Z,8.00
2018-07-16T02:19:20.032Z,7.90
2018-07-16T02:21:48.783Z,8.17
2018-07-16T02:24:17.501Z,7.57
2018-07-16T02:26:46.191Z,7.73
2018-07-16T02:29:15.004Z,8.23
2018-07-16T02:31:43.801Z,7.80
2018-07-16T02:34:12.490Z,7.90
2018-07-16T02:36:41.227Z,7.50
2018-07-16T02:39:09.856Z,8.00
2018-07-16T02:41:38.638Z,8.67
2018-07-16T02:44:07.266Z,8.47
2018-07-16T02:46:35.933Z,8.77
2018-07-16T02:49:04.758Z,8.73
2018-07-16T02:51:33.540Z,8.47
2018-07-16T02:54:02.154Z,8.07
2018-07-16T02:56:31.097Z,8.63
2018-07-16T02:58:59.840Z,8.57
2018-07-16T03:01:28.741Z,9.10
2018-07-16T03:03:57.562Z,9.30
2018-07-16T03:06:26.310Z,9.50
2018-07-16T03:08:55.151Z,8.73
2018-07-16T03:11:23.924Z,8.60
2018-07-16T03:13:52.328Z,8.80
2018-07-16T03:16:20.968Z,8.47
2018-07-16T03:18:49.700Z,8.87
2018-07-16T03:21:18.360Z,8.67
2018-07-16T03:23:47.124Z,8.40
2018-07-16T03:26:15.788Z,8.67
2018-07-16T03:28:44.413Z,8.67
2018-07-16T03:31:13.072Z,8.10
2018-07-16T03:33:41.827Z,8.70
2018-07-16T03:36:10.550Z,8.80
2018-07-16T03:38:39.349Z,8.03
2018-07-16T03:41:08.185Z,8.50
2018-07-16T03:43:36.923Z,8.23
2018-07-16T03:46:05.809Z,8.67
2018-07-16T03:48:34.487Z,8.00
2018-07-16T03:51:04.740Z,8.03
2018-07-16T03:53:33.373Z,8.60
2018-07-16T03:56:02.135Z,10.30
2018-07-16T03:58:30.708Z,8.80
2018-07-16T04:00:59.463Z,7.90
2018-07-16T04:03:28.214Z,9.90
2018-07-16T04:05:56.963Z,7.23
2018-07-16T04:08:25.581Z,10.07
2018-07-16T04:10:54.389Z,8.47
2018-07-16T04:13:23.221Z,8.43
2018-07-16T04:15:52.127Z,8.47
2018-07-16T04:18:21.411Z,8.37
2018-07-16T04:20:50.779Z,8.37
2018-07-16T04:23:19.843Z,8.43
2018-07-16T04:25:48.640Z,8.17
2018-07-16T04:28:17.295Z,8.27
2018-07-16T04:30:45.908Z,7.73
2018-07-16T04:33:14.525Z,7.97
2018-07-16T04:35:43.137Z,7.53
2018-07-16T04:38:11.879Z,8.93
2018-07-16T04:40:40.475Z,8.90
2018-07-16T04:43:09.111Z,7.13
2018-07-16T04:45:37.763Z,8.90
2018-07-16T04:48:06.407Z,7.73
2018-07-16T04:50:34.930Z,9.07
2018-07-16T04:53:03.650Z,7.13
2018-07-16T04:55:32.323Z,7.60
2018-07-16T04:58:00.873Z,7.80
2018-07-16T05:00:29.649Z,7.87
2018-07-16T05:02:59.501Z,7.67
2018-07-16T05:05:28.206Z,7.53
2018-07-16T05:07:57.153Z,9.03
2018-07-16T05:10:25.827Z,7.73
2018-07-16T05:12:54.547Z,7.30
2018-07-16T05:15:23.109Z,7.37
2018-07-16T05:17:51.817Z,7.17
2018-07-16T05:20:20.609Z,7.77
2018-07-16T05:22:49.251Z,7.40
2018-07-16T05:25:18.009Z,7.07
2018-07-16T05:27:46.617Z,7.13
2018-07-16T05:30:15.476Z,7.10
2018-07-16T05:32:44.314Z,7.37
2018-07-16T05:35:12.731Z,6.73
2018-07-16T05:37:41.354Z,6.63
2018-07-16T05:40:09.909Z,7.40
2018-07-16T05:42:38.496Z,6.37
2018-07-16T05:45:07.136Z,6.70
2018-07-16T05:47:35.746Z,6.70
2018-07-16T05:50:04.392Z,7.07
2018-07-16T05:52:34.563Z,7.23
2018-07-16T05:55:03.137Z,6.77
2018-07-16T05:57:31.635Z,6.83
2018-07-16T06:00:00.180Z,6.50
2018-07-16T06:02:28.696Z,8.07
2018-07-16T06:04:57.223Z,8.17
2018-07-16T06:07:25.709Z,6.77
2018-07-16T06:09:54.342Z,6.10
2018-07-16T06:12:22.535Z,8.40
2018-07-16T06:14:51.022Z,5.37
2018-07-16T06:17:19.570Z,7.67
2018-07-16T06:19:48.064Z,5.30
2018-07-16T06:22:16.612Z,7.93
2018-07-16T06:24:45.175Z,5.47
2018-07-16T06:27:13.679Z,6.43
2018-07-16T06:29:42.164Z,6.67
2018-07-16T06:32:10.682Z,5.47
2018-07-16T06:34:39.147Z,6.20
2018-07-16T06:37:07.908Z,5.97
2018-07-16T06:39:36.460Z,6.57
2018-07-16T06:42:04.923Z,6.03
2018-07-16T06:44:33.426Z,5.43
2018-07-16T06:47:01.953Z,5.97
2018-07-16T06:49:30.419Z,5.80
2018-07-16T06:54:32.679Z,5.50
2018-07-16T06:57:01.150Z,5.53
2018-07-16T06:59:29.980Z,6.57
2018-07-16T07:01:58.476Z,5.17
2018-07-16T07:04:27.003Z,5.00
2018-07-16T07:06:55.493Z,5.43
2018-07-16T07:09:24.012Z,4.80
2018-07-16T07:11:52.511Z,5.27
2018-07-16T07:14:20.730Z,5.43
2018-07-16T07:16:49.256Z,6.67
2018-07-16T07:19:17.738Z,4.80
2018-07-16T07:21:46.267Z,5.67
2018-07-16T07:24:14.755Z,4.60
2018-07-16T07:26:43.305Z,7.07
2018-07-16T07:29:11.814Z,5.30
2018-07-16T07:31:40.905Z,6.17
2018-07-16T07:34:09.415Z,6.67
2018-07-16T07:36:37.647Z,4.90
2018-07-16T07:39:07.199Z,5.33
2018-07-16T07:41:35.763Z,7.17
2018-07-16T07:44:04.320Z,4.50
2018-07-16T07:46:32.879Z,4.90
2018-07-16T07:49:01.699Z,5.00
2018-07-16T07:51:30.967Z,4.63
2018-07-16T07:53:59.476Z,6.07
2018-07-16T07:56:28.054Z,4.70
2018-07-16T07:58:56.575Z,6.87
2018-07-16T08:01:25.143Z,4.60
2018-07-16T08:03:53.644Z,5.00
2018-07-16T08:06:22.183Z,6.50
2018-07-16T08:08:50.691Z,6.10
2018-07-16T08:11:19.243Z,5.37
2018-07-16T08:13:47.864Z,6.50
2018-07-16T08:16:16.363Z,6.53
2018-07-16T08:18:44.922Z,4.97
2018-07-16T08:21:13.508Z,5.27
2018-07-16T08:23:42.134Z,6.83
2018-07-16T08:26:10.683Z,4.43
2018-07-16T08:28:39.215Z,4.77
2018-07-16T08:31:07.725Z,4.67
2018-07-16T08:33:36.383Z,7.57
2018-07-16T08:36:04.932Z,5.23
2018-07-16T08:38:33.479Z,5.37
2018-07-16T08:41:01.995Z,5.70
2018-07-16T08:43:30.513Z,5.00
2018-07-16T08:45:59.095Z,4.70
2018-07-16T08:48:27.651Z,12.87
2018-07-16T08:50:56.148Z,5.97
2018-07-16T08:53:25.251Z,6.97
2018-07-16T08:55:53.827Z,6.17
2018-07-16T08:58:22.379Z,7.70
2018-07-16T09:00:50.986Z,7.37
2018-07-16T09:03:19.602Z,9.53
2018-07-16T09:05:52.327Z,9.77
2018-07-16T09:08:20.830Z,5.47
2018-07-16T09:10:49.333Z,5.60
2018-07-16T09:13:17.910Z,7.10
2018-07-16T09:15:46.359Z,6.03
2018-07-16T09:18:14.863Z,4.80
2018-07-16T09:20:43.392Z,5.30
2018-07-16T09:23:11.905Z,5.17
2018-07-16T09:25:40.455Z,6.83
2018-07-16T09:28:08.914Z,5.13
2018-07-16T09:30:39.610Z,5.07
2018-07-16T09:33:08.130Z,8.20
2018-07-16T09:35:36.674Z,5.57
2018-07-16T09:38:05.182Z,7.57
2018-07-16T09:40:33.688Z,5.40
2018-07-16T09:43:02.151Z,10.90
2018-07-16T09:45:30.674Z,5.67
2018-07-16T09:47:59.260Z,5.33
2018-07-16T09:50:27.850Z,5.80
2018-07-16T09:52:56.362Z,5.13
2018-07-16T09:55:24.886Z,6.37
2018-07-16T09:57:53.422Z,6.67
2018-07-16T10:00:27.290Z,5.63
2018-07-16T10:02:55.813Z,7.17
2018-07-16T10:05:24.354Z,5.70
2018-07-16T10:07:52.905Z,4.77
2018-07-16T10:10:21.468Z,4.70
2018-07-16T10:12:50.057Z,11.00
2018-07-16T10:15:18.622Z,8.10
2018-07-16T10:17:47.190Z,8.08
2018-07-16T10:20:15.688Z,4.92
2018-07-16T10:22:44.323Z,4.80
2018-07-16T10:25:12.876Z,4.67
2018-07-16T10:27:41.110Z,7.37
2018-07-16T10:30:12.466Z,5.20
2018-07-16T10:32:41.029Z,5.03
2018-07-16T10:35:09.555Z,6.42
2018-07-16T10:37:38.170Z,5.80
2018-07-16T10:40:06.629Z,7.58
2018-07-16T10:42:34.825Z,5.07
2018-07-16T10:45:03.828Z,6.92
2018-07-16T10:47:32.046Z,4.90
2018-07-16T10:50:00.543Z,4.85
2018-07-16T10:52:29.132Z,5.20
2018-07-16T10:54:57.699Z,6.30
2018-07-16T10:57:26.323Z,5.43
2018-07-16T10:59:54.951Z,5.47
2018-07-16T11:02:23.629Z,5.43
2018-07-16T11:04:52.146Z,5.03
2018-07-16T11:07:20.652Z,4.90
2018-07-16T11:09:49.247Z,5.13
2018-07-16T11:12:17.734Z,5.13
2018-07-16T11:14:46.302Z,6.40
2018-07-16T11:17:14.865Z,10.75
2018-07-16T11:19:43.413Z,14.30
2018-07-16T11:22:11.938Z,5.45
2018-07-16T11:24:40.503Z,5.47
2018-07-16T11:27:09.007Z,4.67
2018-07-16T11:29:37.575Z,4.80
2018-07-16T11:32:06.086Z,4.72
2018-07-16T11:34:34.643Z,4.65
2018-07-16T11:37:03.324Z,8.33
2018-07-16T11:39:31.933Z,4.83
2018-07-16T11:42:00.458Z,7.17
2018-07-16T11:44:29.038Z,4.47
2018-07-16T11:46:57.581Z,5.33
2018-07-16T11:49:26.467Z,7.10
2018-07-16T11:51:55.059Z,4.78
2018-07-16T11:54:23.548Z,6.30
2018-07-16T11:56:52.064Z,5.42
2018-07-16T11:59:20.641Z,5.00
2018-07-16T12:01:49.276Z,4.80
2018-07-16T12:04:17.720Z,5.40
2018-07-16T12:06:46.262Z,5.12
2018-07-16T12:09:14.780Z,4.62
2018-07-16T12:11:43.318Z,6.70
2018-07-16T12:14:12.052Z,5.30
2018-07-16T12:16:40.623Z,4.35
2018-07-16T12:19:09.135Z,5.05
2018-07-16T12:21:37.686Z,4.40
2018-07-16T12:24:06.538Z,6.12
2018-07-16T12:26:35.070Z,5.03
2018-07-16T12:29:03.848Z,4.45
2018-07-16T12:31:32.378Z,4.75
2018-07-16T12:34:00.862Z,4.92
2018-07-16T12:36:29.472Z,4.85
2018-07-16T12:38:57.965Z,5.35
2018-07-16T12:41:26.601Z,4.80
2018-07-16T12:43:55.070Z,5.08
2018-07-16T12:46:23.571Z,5.00
2018-07-16T12:48:52.038Z,7.50
2018-07-16T12:51:20.522Z,5.53
2018-07-16T12:53:49.089Z,6.78
2018-07-16T12:56:17.598Z,4.90
2018-07-16T12:58:46.119Z,5.12
2018-07-16T13:01:14.683Z,5.37
2018-07-16T13:03:43.247Z,4.95
2018-07-16T13:06:11.742Z,4.58
2018-07-16T13:08:40.298Z,4.78
2018-07-16T13:11:08.806Z,8.25
2018-07-16T13:13:37.530Z,5.00
2018-07-16T13:16:06.035Z,5.08
2018-07-16T13:18:34.536Z,5.50
2018-07-16T13:21:03.081Z,4.28
2018-07-16T13:23:31.628Z,5.67
2018-07-16T13:26:00.096Z,5.67
2018-07-16T13:28:28.653Z,5.92
2018-07-16T13:30:57.382Z,8.30
2018-07-16T13:33:26.005Z,5.67
2018-07-16T13:35:54.554Z,7.37
2018-07-16T13:38:23.131Z,7.23
2018-07-16T13:40:51.631Z,9.27
2018-07-16T13:43:20.234Z,10.83
2018-07-16T13:45:48.431Z,8.77
2018-07-16T13:48:16.990Z,8.10
2018-07-16T13:50:45.588Z,9.40
2018-07-16T13:53:14.113Z,8.90
2018-07-16T13:55:42.758Z,10.53
2018-07-16T13:58:11.346Z,10.33
2018-07-16T14:00:39.986Z,10.40
2018-07-16T14:03:08.541Z,9.10
2018-07-16T14:05:37.636Z,9.70
2018-07-16T14:08:06.219Z,9.77
2018-07-16T14:10:34.800Z,17.03
2018-07-16T14:13:03.388Z,10.23
2018-07-16T14:15:32.045Z,15.00
2018-07-16T14:18:00.560Z,15.23
2018-07-16T14:20:29.177Z,10.23
2018-07-16T14:22:57.655Z,11.97
2018-07-16T14:25:26.199Z,10.47
2018-07-16T14:27:54.719Z,11.67
2018-07-16T14:30:23.258Z,11.60
2018-07-16T14:32:51.820Z,11.90
2018-07-16T14:35:20.413Z,14.23
2018-07-16T14:37:48.904Z,10.83
2018-07-16T14:40:17.580Z,9.47
2018-07-16T14:42:46.089Z,10.10
2018-07-16T14:45:14.829Z,9.77
2018-07-16T14:47:43.424Z,10.27
2018-07-16T14:50:12.247Z,10.50
2018-07-16T14:52:40.851Z,10.47
2018-07-16T14:55:09.402Z,11.20
2018-07-16T14:57:37.951Z,14.43
2018-07-16T15:00:06.494Z,10.40
2018-07-16T15:02:35.323Z,11.63
2018-07-16T15:05:03.867Z,11.13
2018-07-16T15:07:32.435Z,11.43
2018-07-16T15:10:00.988Z,11.80
2018-07-16T15:12:29.543Z,11.43
2018-07-16T15:14:58.095Z,12.63
2018-07-16T15:17:26.608Z,11.50
2018-07-16T15:19:55.248Z,11.23
2018-07-16T15:22:23.749Z,12.43
2018-07-16T15:24:52.287Z,13.27
2018-07-16T15:27:20.796Z,11.70
2018-07-16T15:29:49.458Z,12.40
2018-07-16T15:32:17.889Z,11.27
2018-07-16T15:34:46.546Z,11.90
2018-07-16T15:37:15.042Z,12.83
2018-07-16T15:39:43.594Z,11.60
2018-07-16T15:42:12.249Z,12.83
2018-07-16T15:44:41.140Z,10.70
2018-07-16T15:47:09.456Z,11.10
2018-07-16T15:49:38.014Z,10.30
2018-07-16T15:52:06.651Z,9.03
2018-07-16T15:54:35.207Z,9.87
2018-07-16T15:57:03.788Z,7.90
2018-07-16T15:59:32.299Z,7.97
2018-07-16T16:02:01.077Z,8.23
2018-07-16T16:04:29.584Z,8.83
2018-07-16T16:06:58.187Z,8.07
2018-07-16T16:09:26.740Z,8.00
2018-07-16T16:11:55.305Z,7.70
2018-07-16T16:14:23.850Z,7.70
2018-07-16T16:16:52.383Z,9.10
2018-07-16T16:19:20.913Z,7.93
2018-07-16T16:21:49.447Z,7.77
2018-07-16T16:24:17.927Z,7.43
2018-07-16T16:26:46.475Z,7.27
2018-07-16T16:29:14.938Z,7.73
2018-07-16T16:31:43.483Z,9.00
2018-07-16T16:34:12.039Z,6.77
2018-07-16T16:36:40.674Z,6.67
2018-07-16T16:39:10.551Z,7.50
2018-07-16T16:41:39.029Z,5.80
2018-07-16T16:44:07.603Z,6.17
2018-07-16T16:46:36.561Z,6.80
2018-07-16T16:49:05.237Z,5.70
2018-07-16T16:51:33.841Z,6.80
2018-07-16T16:54:04.303Z,6.97
2018-07-16T16:56:32.877Z,7.07
2018-07-16T16:59:01.391Z,7.10
2018-07-16T17:01:30.027Z,6.23
2018-07-16T17:03:58.593Z,6.00
2018-07-16T17:06:27.077Z,5.70
2018-07-16T17:08:55.679Z,6.27
2018-07-16T17:11:24.387Z,5.27
2018-07-16T17:13:52.993Z,5.90
2018-07-16T17:16:21.556Z,5.50
2018-07-16T17:18:50.233Z,5.50
2018-07-16T17:21:18.803Z,5.97
2018-07-16T17:23:47.468Z,6.17
2018-07-16T17:26:16.363Z,5.13
2018-07-16T17:28:44.892Z,6.40
2018-07-16T17:31:13.527Z,5.43
2018-07-16T17:33:42.069Z,5.93
2018-07-16T17:36:10.699Z,5.73
2018-07-16T17:38:39.251Z,5.43
2018-07-16T17:41:07.823Z,5.87
2018-07-16T17:43:36.421Z,5.07
2018-07-16T17:46:05.121Z,5.70
2018-07-16T17:48:33.335Z,5.30
2018-07-16T17:51:01.898Z,5.30
2018-07-16T17:53:30.444Z,4.93
2018-07-16T17:55:58.979Z,5.43
2018-07-16T17:58:27.485Z,5.93
2018-07-16T18:00:56.059Z,5.40
2018-07-16T18:03:24.575Z,5.73
2018-07-16T18:05:53.080Z,5.93
2018-07-16T18:08:21.543Z,5.70
2018-07-16T18:10:50.147Z,6.13
2018-07-16T18:13:18.710Z,5.93
2018-07-16T18:15:47.206Z,6.17
2018-07-16T18:18:15.707Z,5.53
2018-07-16T18:20:44.266Z,6.40
2018-07-16T18:23:12.459Z,5.77
2018-07-16T18:25:40.984Z,6.53
2018-07-16T18:28:09.511Z,6.13
2018-07-16T18:30:38.083Z,6.20
2018-07-16T18:33:06.755Z,5.93
2018-07-16T18:35:35.373Z,5.90
2018-07-16T18:38:03.879Z,6.30
2018-07-16T18:40:32.378Z,6.97
2018-07-16T18:43:00.895Z,7.23
2018-07-16T18:45:29.355Z,7.30
2018-07-16T18:47:57.887Z,7.80
2018-07-16T18:50:26.488Z,6.80
2018-07-16T18:52:55.073Z,7.20
2018-07-16T18:55:23.654Z,7.57
2018-07-16T18:57:51.859Z,6.83
2018-07-16T19:00:20.390Z,7.10
2018-07-16T19:02:48.946Z,7.27
2018-07-16T19:05:17.497Z,7.23
2018-07-16T19:07:46.050Z,6.73
2018-07-16T19:10:14.585Z,7.37
2018-07-16T19:12:43.127Z,7.60
2018-07-16T19:15:14.074Z,7.87
2018-07-16T19:17:43.194Z,7.43
2018-07-16T19:20:11.774Z,7.53
2018-07-16T19:22:40.320Z,7.63
2018-07-16T19:25:09.019Z,7.00
2018-07-16T19:27:37.508Z,7.43
2018-07-16T19:30:06.530Z,6.47
2018-07-16T19:32:35.068Z,7.50
2018-07-16T19:35:03.668Z,7.07
2018-07-16T19:37:32.196Z,6.77
2018-07-16T19:40:00.730Z,6.87
2018-07-16T19:42:29.321Z,7.70
2018-07-16T19:44:57.877Z,6.60
2018-07-16T19:47:26.322Z,6.10
2018-07-16T19:49:54.848Z,10.40
2018-07-16T19:52:23.374Z,6.60
2018-07-16T19:54:51.917Z,7.30
2018-07-16T19:57:20.382Z,6.73
2018-07-16T19:59:48.909Z,6.37
2018-07-16T20:02:17.416Z,6.37
2018-07-16T20:04:45.978Z,6.53
2018-07-16T20:07:14.507Z,6.50
2018-07-16T20:09:43.132Z,6.43
2018-07-16T20:12:21.667Z,6.23
2018-07-16T20:14:50.312Z,6.37
2018-07-16T20:17:18.826Z,6.43
2018-07-16T20:19:47.296Z,6.73
2018-07-16T20:22:15.850Z,6.03
2018-07-16T20:24:44.441Z,6.37
2018-07-16T20:27:13.016Z,7.73
2018-07-16T20:29:41.874Z,6.70
2018-07-16T20:32:10.408Z,6.73
2018-07-16T20:34:39.502Z,7.20
2018-07-16T20:37:08.631Z,7.20
2018-07-16T20:39:37.259Z,7.37
2018-07-16T20:42:05.824Z,6.63
2018-07-16T20:44:34.460Z,6.77
2018-07-16T20:47:03.044Z,7.73
2018-07-16T20:49:31.558Z,7.17
2018-07-16T20:52:00.136Z,6.80
2018-07-16T20:54:28.667Z,6.87
2018-07-16T20:56:57.292Z,7.47
2018-07-16T20:59:26.335Z,6.47
2018-07-16T21:01:54.934Z,7.00
2018-07-16T21:04:23.448Z,7.37
2018-07-16T21:06:51.995Z,7.23
2018-07-16T21:09:20.221Z,6.87
2018-07-16T21:11:48.877Z,7.27
2018-07-16T21:14:17.383Z,7.20
2018-07-16T21:16:45.955Z,6.67
2018-07-16T21:19:14.523Z,6.73
2018-07-16T21:21:43.003Z,6.80
2018-07-16T21:24:11.523Z,6.93
2018-07-16T21:26:40.091Z,6.73
2018-07-16T21:29:08.687Z,6.67
2018-07-16T21:31:37.242Z,8.20
2018-07-16T21:34:05.755Z,6.77
2018-07-16T21:36:34.306Z,6.37
2018-07-16T21:39:03.079Z,7.30
2018-07-16T21:41:31.629Z,6.60
2018-07-16T21:44:00.300Z,6.90
2018-07-16T21:46:28.786Z,7.30
2018-07-16T21:48:57.335Z,7.50
2018-07-16T21:51:25.855Z,7.10
2018-07-16T21:53:54.482Z,6.67
2018-07-16T21:56:22.963Z,7.13
2018-07-16T21:58:51.526Z,6.40
2018-07-16T22:01:20.067Z,6.67
2018-07-16T22:03:48.611Z,6.43
2018-07-16T22:06:17.085Z,6.40
2018-07-16T22:08:45.886Z,6.70
2018-07-16T22:11:14.462Z,6.67
2018-07-16T22:13:43.078Z,6.80
2018-07-16T22:16:11.710Z,6.67
2018-07-16T22:18:40.160Z,6.80
2018-07-16T22:21:08.771Z,6.80
2018-07-16T22:23:37.272Z,7.13
2018-07-16T22:26:06.066Z,6.60
2018-07-16T22:28:34.634Z,6.50
2018-07-16T22:31:04.066Z,7.50
2018-07-16T22:33:32.550Z,6.97
2018-07-16T22:36:01.110Z,6.23
2018-07-16T22:38:29.650Z,7.73
2018-07-16T22:40:58.264Z,7.37
2018-07-16T22:43:26.766Z,6.60
2018-07-16T22:45:55.370Z,7.00
2018-07-16T22:48:23.862Z,6.60
2018-07-16T22:50:52.394Z,6.60
2018-07-16T22:53:20.956Z,6.03
2018-07-16T22:55:49.519Z,6.67
2018-07-16T22:58:18.114Z,6.60
2018-07-16T23:00:46.610Z,7.07
2018-07-16T23:03:15.199Z,8.00
2018-07-16T23:05:43.978Z,6.13
2018-07-16T23:08:14.994Z,5.77
2018-07-16T23:10:43.726Z,7.23
2018-07-16T23:13:12.304Z,6.93
2018-07-16T23:15:40.824Z,6.63
2018-07-16T23:18:09.334Z,6.17
2018-07-16T23:20:38.290Z,5.50
2018-07-16T23:23:06.815Z,5.70
2018-07-16T23:25:36.356Z,5.93
2018-07-16T23:28:05.074Z,5.60
2018-07-16T23:30:33.574Z,6.00
2018-07-16T23:33:02.552Z,5.70
2018-07-16T23:35:31.030Z,5.40
2018-07-16T23:37:59.538Z,5.67
2018-07-16T23:40:28.090Z,5.83
2018-07-16T23:42:56.682Z,5.47
2018-07-16T23:45:25.355Z,6.20
2018-07-16T23:47:53.891Z,7.27
2018-07-16T23:50:22.077Z,5.63
2018-07-16T23:52:50.679Z,5.47
2018-07-16T23:55:18.880Z,5.60
2018-07-16T23:57:47.381Z,5.57
